Time;durP1;ratioP1;P1;durP2;ratioP2;P2;SDS_P1;SDS_P2;PMS_P1;PMS_P2;Temp;Humidity;BMP_temperature;BMP_pressure;BME280_temperature;BME280_humidity;BME280_pressure;Samples;Min_cycle;Max_cycle;Signal;HPM_P1;HPM_P2
2023/09/13 00:01:05;;;;;;;7.65;4.10;;;;;;;19.28;48.13;94869.31;4195551;28;20059;-75
2023/09/13 00:03:07;;;;;;;7.13;3.90;;;;;;;19.26;48.44;94858.06;4176084;28;20138;-75
2023/09/13 00:05:09;;;;;;;7.95;4.40;;;;;;;19.28;48.46;94863.19;4176424;28;20149;-74
2023/09/13 00:07:11;;;;;;;7.55;4.10;;;;;;;19.31;48.15;94860.91;4195395;28;20476;-78
2023/09/13 00:09:13;;;;;;;10.07;4.63;;;;;;;19.30;48.22;94861.94;4196722;28;20443;-76
2023/09/13 00:11:15;;;;;;;6.57;4.25;;;;;;;19.24;48.63;94855.63;4164252;28;20107;-76
2023/09/13 00:13:17;;;;;;;9.68;4.40;;;;;;;19.18;48.87;94860.94;4195550;28;20048;-76
2023/09/13 00:15:19;;;;;;;9.23;4.78;;;;;;;19.11;49.14;94860.97;4177754;28;20048;-74
2023/09/13 00:17:21;;;;;;;11.15;4.70;;;;;;;19.01;49.63;94865.88;4193635;28;20090;-74
2023/09/13 00:19:22;;;;;;;9.55;4.35;;;;;;;19.01;49.49;94864.06;4194141;28;20129;-75
2023/09/13 00:21:24;;;;;;;9.48;4.72;;;;;;;19.00;49.83;94864.25;4194027;28;20136;-75
2023/09/13 00:23:26;;;;;;;10.00;4.63;;;;;;;18.98;49.89;94869.78;4188069;28;20155;-75
2023/09/13 00:25:28;;;;;;;10.32;4.45;;;;;;;18.98;49.61;94867.13;4195140;28;20135;-74
2023/09/13 00:27:29;;;;;;;8.15;4.60;;;;;;;18.99;49.88;94873.22;4201904;28;20127;-75
2023/09/13 00:29:33;;;;;;;8.68;4.80;;;;;;;19.01;49.87;94871.19;4185010;28;20056;-75
2023/09/13 00:31:35;;;;;;;11.85;5.18;;;;;;;19.04;49.33;94873.44;4193700;28;20059;-75
2023/09/13 00:33:38;;;;;;;7.22;4.22;;;;;;;19.01;49.20;94876.50;4182831;28;20057;-74
2023/09/13 00:35:40;;;;;;;11.95;4.80;;;;;;;18.99;49.26;94873.22;4188673;28;20104;-75
2023/09/13 00:37:42;;;;;;;8.20;4.10;;;;;;;18.97;49.24;94862.00;4172205;28;20400;-75
2023/09/13 00:39:44;;;;;;;6.97;4.05;;;;;;;18.96;49.18;94873.66;4190597;28;20049;-74
2023/09/13 00:41:45;;;;;;;9.82;4.15;;;;;;;18.97;49.46;94872.63;4191024;28;20554;-75
2023/09/13 00:43:47;;;;;;;6.95;4.03;;;;;;;18.96;49.39;94871.81;4193644;28;20051;-75
2023/09/13 00:45:50;;;;;;;8.02;4.32;;;;;;;18.93;49.08;94871.41;4187702;28;20403;-75
2023/09/13 00:47:52;;;;;;;7.53;4.28;;;;;;;18.92;49.08;94870.59;4189643;28;20140;-76
2023/09/13 00:49:54;;;;;;;14.40;4.40;;;;;;;18.87;49.67;94875.72;4160563;28;20455;-73
2023/09/13 00:51:57;;;;;;;11.80;4.28;;;;;;;18.78;49.82;94869.81;4192308;28;20048;-75
2023/09/13 00:54:01;;;;;;;10.70;4.30;;;;;;;18.71;49.93;94873.44;4160519;28;20076;-75
2023/09/13 00:56:04;;;;;;;6.63;4.40;;;;;;;18.73;50.03;94874.88;4185605;28;20558;-76
2023/09/13 00:58:06;;;;;;;7.75;4.18;;;;;;;18.70;50.00;94875.28;4187206;28;20052;-75
2023/09/13 01:00:10;;;;;;;11.63;4.50;;;;;;;18.63;50.09;94874.47;4181567;28;20052;-76
2023/09/13 01:02:12;;;;;;;8.38;4.03;;;;;;;18.49;50.45;94872.84;4195212;28;20040;-73
2023/09/13 01:04:14;;;;;;;6.65;3.95;;;;;;;18.24;50.45;94876.09;4190721;28;20094;-75
2023/09/13 01:06:16;;;;;;;10.73;4.13;;;;;;;18.01;51.15;94871.16;4193995;28;20053;-75
2023/09/13 01:08:19;;;;;;;7.88;4.55;;;;;;;17.94;51.32;94876.44;4191334;28;20108;-74
2023/09/13 01:10:21;;;;;;;6.85;3.72;;;;;;;17.99;51.34;94876.66;4170084;28;20132;-73
2023/09/13 01:12:23;;;;;;;6.97;3.83;;;;;;;18.00;51.22;94877.47;4189905;28;20041;-75
2023/09/13 01:14:25;;;;;;;9.25;4.13;;;;;;;17.98;50.80;94874.19;4190854;28;20436;-75
2023/09/13 01:16:33;;;;;;;8.77;3.65;;;;;;;18.04;50.91;94885.84;4192724;28;20056;-75
2023/09/13 01:18:45;;;;;;;8.27;4.20;;;;;;;17.94;51.19;94881.75;4192899;28;20053;-74
2023/09/13 01:20:59;;;;;;;9.88;4.22;;;;;;;17.82;50.95;94883.34;4164930;28;20125;-73
2023/09/13 01:23:15;;;;;;;;;;;;;;;17.78;50.91;94880.22;4191145;28;20497;-75
2023/09/13 01:25:29;;;;;;;8.90;3.90;;;;;;;17.71;51.22;94881.22;4184695;28;19928;-74
2023/09/13 01:27:49;;;;;;;11.82;4.30;;;;;;;17.75;52.20;94883.28;4194203;28;20056;-73
2023/09/13 01:29:51;;;;;;;9.07;4.15;;;;;;;17.89;52.22;94880.69;4184316;28;20067;-76
2023/09/13 01:31:54;;;;;;;7.85;4.07;;;;;;;17.94;51.90;94881.75;4194009;28;20070;-74
2023/09/13 01:33:55;;;;;;;8.68;4.15;;;;;;;18.01;51.75;94876.47;4184654;28;20048;-74
2023/09/13 01:35:58;;;;;;;11.65;4.05;;;;;;;18.04;51.57;94877.88;4193830;28;20482;-74
2023/09/13 01:37:59;;;;;;;9.50;4.10;;;;;;;18.08;50.63;94879.13;4195626;28;20184;-73
2023/09/13 01:40:05;;;;;;;8.68;3.95;;;;;;;18.11;50.00;94881.34;4188463;28;20171;-76
2023/09/13 01:42:10;;;;;;;6.95;3.50;;;;;;;18.15;50.53;94877.28;4178053;28;20045;-75
2023/09/13 01:44:14;;;;;;;7.70;4.20;;;;;;;18.11;50.92;94878.69;4176360;28;20087;-76
2023/09/13 01:46:16;;;;;;;;;;;;;;;18.16;50.43;94878.94;4178774;28;20091;-76
2023/09/13 01:48:18;;;;;;;8.60;3.80;;;;;;;18.14;50.94;94881.78;4178596;28;19935;-77
2023/09/13 01:50:20;;;;;;;6.82;4.43;;;;;;;18.08;51.14;94881.78;4178143;28;20165;-74
2023/09/13 01:52:22;;;;;;;8.45;3.55;;;;;;;18.01;50.83;94877.25;4184121;28;20119;-75
2023/09/13 01:54:24;;;;;;;7.55;4.00;;;;;;;17.97;51.46;94875.22;4192417;28;20045;-75
2023/09/13 01:56:26;;;;;;;9.55;4.10;;;;;;;17.99;51.50;94878.50;4176335;28;20059;-75
2023/09/13 01:58:27;;;;;;;8.38;4.22;;;;;;;18.00;50.86;94878.31;4193137;28;20060;-75
2023/09/13 02:00:29;;;;;;;10.63;3.60;;;;;;;18.03;51.47;94873.63;4175949;28;20098;-74
2023/09/13 02:02:31;;;;;;;7.18;4.18;;;;;;;18.05;50.89;94868.91;4187681;28;20181;-75
2023/09/13 02:04:33;;;;;;;7.93;4.07;;;;;;;18.08;51.08;94874.63;4190835;28;20130;-74
2023/09/13 02:06:35;;;;;;;7.50;4.65;;;;;;;18.13;50.48;94874.03;4185000;28;20053;-76
2023/09/13 02:08:37;;;;;;;6.93;3.75;;;;;;;18.15;50.41;94882.59;4182312;28;20472;-76
2023/09/13 02:10:40;;;;;;;6.80;3.83;;;;;;;18.16;50.68;94889.53;4164122;28;20045;-74
2023/09/13 02:12:42;;;;;;;7.30;3.97;;;;;;;18.16;50.65;94878.94;4187294;28;20286;-75
2023/09/13 02:14:43;;;;;;;7.03;3.38;;;;;;;18.18;50.92;94882.22;4174893;28;20045;-73
2023/09/13 02:16:45;;;;;;;9.63;4.30;;;;;;;18.19;50.53;94879.34;4182512;28;20081;-74
2023/09/13 02:18:47;;;;;;;8.27;4.28;;;;;;;18.17;50.67;94877.91;4187495;28;20499;-76
2023/09/13 02:20:49;;;;;;;8.48;3.80;;;;;;;18.17;50.70;94880.56;4192519;28;20041;-75
2023/09/13 02:22:51;;;;;;;8.45;3.90;;;;;;;18.11;51.29;94879.53;4193416;28;20543;-74
2023/09/13 02:24:52;;;;;;;9.88;4.43;;;;;;;18.10;50.87;94879.75;4198324;28;20059;-76
2023/09/13 02:26:58;;;;;;;10.85;4.35;;;;;;;18.08;50.89;94874.63;4200375;28;20140;-76
2023/09/13 02:29:00;;;;;;;6.43;4.00;;;;;;;18.05;50.78;94875.03;4188207;28;20529;-74
2023/09/13 02:31:02;;;;;;;10.25;3.92;;;;;;;18.07;50.88;94878.31;4196030;28;20094;-75
2023/09/13 02:33:04;;;;;;;9.32;3.90;;;;;;;18.07;50.92;94874.81;4206068;28;20058;-75
2023/09/13 02:35:07;;;;;;;8.55;4.47;;;;;;;17.87;51.67;94880.88;4185627;28;20096;-76
2023/09/13 02:37:10;;;;;;;12.10;4.50;;;;;;;17.65;51.67;94872.22;4175031;28;20103;-75
2023/09/13 02:39:39;;;;;;;7.72;4.65;;;;;;;17.47;52.33;94882.56;4186731;28;20139;-75
2023/09/13 02:41:41;;;;;;;10.77;4.18;;;;;;;17.42;52.83;94872.53;4179661;28;20041;-78
2023/09/13 02:43:43;;;;;;;10.57;4.60;;;;;;;17.40;52.50;94885.16;4192256;28;20119;-76
2023/09/13 02:45:45;;;;;;;10.00;4.00;;;;;;;17.37;52.52;94890.88;4186794;28;20078;-75
2023/09/13 02:47:47;;;;;;;9.52;4.55;;;;;;;17.39;52.45;94886.19;4185486;28;20395;-76
2023/09/13 02:49:49;;;;;;;12.15;4.22;;;;;;;17.46;52.08;94889.69;4182873;28;20124;-75
2023/09/13 02:51:51;;;;;;;13.57;7.97;;;;;;;17.48;52.30;94892.13;4196536;28;20414;-74
2023/09/13 02:53:53;;;;;;;9.50;4.30;;;;;;;17.47;51.99;94893.97;4194169;28;20450;-78
2023/09/13 02:56:05;;;;;;;11.05;4.32;;;;;;;17.45;52.29;94890.72;4197624;28;20129;-75
2023/09/13 02:58:08;;;;;;;7.60;3.95;;;;;;;17.50;52.05;94890.13;4175605;28;20140;-76
2023/09/13 03:00:12;;;;;;;8.80;4.18;;;;;;;17.56;52.01;94886.69;4196571;28;20078;-75
2023/09/13 03:02:14;;;;;;;6.93;4.35;;;;;;;17.58;51.96;94892.59;4196176;28;20084;-76
2023/09/13 03:04:16;;;;;;;7.90;4.18;;;;;;;17.60;52.13;94895.88;4182763;28;20168;-78
2023/09/13 03:06:18;;;;;;;10.43;3.92;;;;;;;17.61;52.14;94895.66;4192512;28;20053;-76
2023/09/13 03:08:20;;;;;;;7.85;4.10;;;;;;;17.63;52.11;94899.94;4189434;28;20049;-74
2023/09/13 03:10:22;;;;;;;11.60;4.18;;;;;;;17.59;52.19;94891.56;4183280;28;20061;-75
2023/09/13 03:12:23;;;;;;;7.95;4.15;;;;;;;17.59;52.10;94892.41;4194814;28;20080;-74
2023/09/13 03:14:25;;;;;;;5.57;3.90;;;;;;;17.59;51.88;94892.41;4196617;28;20053;-75
2023/09/13 03:16:27;;;;;;;10.30;3.95;;;;;;;17.63;52.05;94899.94;4196632;28;20264;-75
2023/09/13 03:18:29;;;;;;;6.10;4.13;;;;;;;17.65;51.53;94903.22;4197282;28;20057;-75
2023/09/13 03:20:31;;;;;;;9.27;4.30;;;;;;;17.67;51.68;94907.31;4196256;28;20055;-77
2023/09/13 03:22:32;;;;;;;6.95;3.53;;;;;;;17.67;51.80;94906.50;4187178;28;20089;-76
2023/09/13 03:24:35;;;;;;;12.93;4.93;;;;;;;17.64;51.54;94904.22;4192857;28;20068;-76
2023/09/13 03:26:37;;;;;;;12.10;4.30;;;;;;;17.67;51.60;94912.59;4169849;28;20041;-74
2023/09/13 03:28:39;;;;;;;8.55;4.38;;;;;;;17.66;51.93;94907.47;4194694;28;20124;-72
2023/09/13 03:30:41;;;;;;;9.52;4.00;;;;;;;17.65;51.62;94904.03;4182653;28;20059;-74
2023/09/13 03:32:43;;;;;;;11.93;3.92;;;;;;;17.65;51.63;94905.88;4190656;28;20044;-74
2023/09/13 03:34:45;;;;;;;10.18;4.03;;;;;;;17.64;51.51;94907.72;4181195;28;20103;-74
2023/09/13 03:36:46;;;;;;;9.95;4.53;;;;;;;17.63;51.61;94899.94;4192676;28;20045;-74
2023/09/13 03:38:49;;;;;;;9.75;4.85;;;;;;;17.61;51.71;94905.44;4185972;28;20132;-75
2023/09/13 03:40:50;;;;;;;8.65;4.78;;;;;;;17.58;51.46;94904.00;4188157;28;20060;-77
2023/09/13 03:42:52;;;;;;;11.00;4.47;;;;;;;17.57;51.64;94906.84;4173703;28;20272;-75
2023/09/13 03:44:54;;;;;;;10.98;4.55;;;;;;;17.55;52.45;94908.88;4189164;28;20403;-74
2023/09/13 03:46:56;;;;;;;11.80;4.82;;;;;;;17.50;52.97;94904.16;4186458;28;20127;-74
2023/09/13 03:48:58;;;;;;;12.93;4.47;;;;;;;17.45;53.28;94906.59;4186821;28;20052;-77
2023/09/13 03:51:00;;;;;;;12.70;4.93;;;;;;;17.44;52.91;94906.78;4188177;28;20048;-75
2023/09/13 03:53:02;;;;;;;15.48;5.85;;;;;;;17.39;52.63;94904.72;4178458;28;20472;-76
2023/09/13 03:55:04;;;;;;;13.18;4.78;;;;;;;17.31;52.97;94907.53;4193857;28;20144;-74
2023/09/13 03:57:06;;;;;;;13.95;6.07;;;;;;;17.26;53.15;94910.78;4177053;28;20048;-76
2023/09/13 03:59:08;;;;;;;26.02;6.10;;;;;;;17.19;53.46;94904.63;4175684;28;20059;-75
2023/09/13 04:01:10;;;;;;;18.90;6.28;;;;;;;17.17;53.78;94918.06;4188867;28;20049;-77
2023/09/13 04:03:13;;;;;;;13.90;5.88;;;;;;;17.16;53.96;94908.50;4196742;28;20113;-76
2023/09/13 04:05:14;;;;;;;13.37;4.97;;;;;;;17.20;54.03;94911.53;4201051;28;20141;-77
2023/09/13 04:07:16;;;;;;;11.82;5.13;;;;;;;17.25;53.80;94910.97;4183371;28;20282;-77
2023/09/13 04:09:19;;;;;;;15.00;5.40;;;;;;;17.30;53.88;94905.91;4177523;28;20161;-75
2023/09/13 04:11:21;;;;;;;16.38;5.68;;;;;;;17.36;53.71;94907.78;4192343;28;20483;-76
2023/09/13 04:13:23;;;;;;;12.38;5.30;;;;;;;17.42;54.06;94917.56;4186192;28;20052;-78
2023/09/13 04:15:25;;;;;;;10.90;5.22;;;;;;;17.35;54.15;94908.78;4185907;28;20059;-78
2023/09/13 04:17:26;;;;;;;11.85;5.75;;;;;;;17.32;54.08;94919.78;4193080;28;20380;-77
2023/09/13 04:19:28;;;;;;;13.95;6.03;;;;;;;17.28;54.45;94914.03;4195772;28;20048;-75
2023/09/13 04:21:30;;;;;;;12.60;5.60;;;;;;;17.31;54.46;94913.63;4196597;28;20048;-76
2023/09/13 04:23:32;;;;;;;15.43;6.30;;;;;;;17.33;54.23;94914.25;4178216;28;20388;-76
2023/09/13 04:25:34;;;;;;;12.05;6.35;;;;;;;17.33;55.25;94910.81;4175872;28;20192;-78
2023/09/13 04:27:36;;;;;;;15.90;6.13;;;;;;;17.38;55.84;94919.81;4194580;28;20809;-78
2023/09/13 04:29:40;;;;;;;10.80;5.55;;;;;;;17.38;55.28;94913.69;4194595;28;20052;-77
2023/09/13 04:31:42;;;;;;;10.70;5.68;;;;;;;17.34;54.98;94912.44;4194397;28;20123;-75
2023/09/13 04:33:54;;;;;;;11.25;5.32;;;;;;;17.34;54.81;94910.63;4176479;28;20264;-80
2023/09/13 04:35:56;;;;;;;9.60;5.57;;;;;;;17.43;54.45;94915.75;4183503;28;20071;-76
2023/09/13 04:37:58;;;;;;;10.27;5.55;;;;;;;17.54;54.11;94916.00;4194611;28;20717;-78
2023/09/13 04:40:05;;;;;;;9.77;4.88;;;;;;;17.67;53.16;94919.72;4184886;28;20447;-74
2023/09/13 04:42:07;;;;;;;10.98;5.55;;;;;;;17.76;53.12;94910.59;4191502;28;20476;-76
2023/09/13 04:44:11;;;;;;;11.63;5.90;;;;;;;17.76;52.70;94911.41;4186510;28;20492;-77
2023/09/13 04:46:13;;;;;;;16.52;6.63;;;;;;;17.72;52.87;94915.47;4195572;28;20055;-75
2023/09/13 04:48:14;;;;;;;14.23;5.72;;;;;;;17.65;53.49;94913.81;4189148;28;20084;-75
2023/09/13 04:50:16;;;;;;;18.42;6.15;;;;;;;17.68;53.32;94916.91;4193727;28;20059;-78
2023/09/13 04:52:18;;;;;;;17.23;6.90;;;;;;;17.70;53.36;94914.88;4189301;28;20492;-78
2023/09/13 04:54:22;;;;;;;14.38;6.43;;;;;;;17.76;53.17;94915.88;4189024;28;20412;-78
2023/09/13 04:56:24;;;;;;;15.98;6.05;;;;;;;17.85;52.64;94920.03;4194453;28;20058;-76
2023/09/13 04:58:26;;;;;;;13.13;6.47;;;;;;;17.97;52.58;94915.78;4183884;28;20052;-76
2023/09/13 05:00:31;;;;;;;15.85;5.70;;;;;;;18.03;51.96;94910.72;4181079;28;20073;-77
2023/09/13 05:02:33;;;;;;;9.93;5.82;;;;;;;18.09;51.81;94915.19;4181621;28;20053;-78
2023/09/13 05:04:35;;;;;;;17.30;5.85;;;;;;;18.10;52.15;94916.84;4181240;28;20235;-76
2023/09/13 05:06:37;;;;;;;13.25;6.60;;;;;;;18.06;52.00;94915.63;4164894;28;20059;-75
2023/09/13 05:08:39;;;;;;;16.65;6.13;;;;;;;18.12;51.92;94920.13;4176816;28;20077;-77
2023/09/13 05:10:43;;;;;;;13.75;6.20;;;;;;;18.18;51.81;94906.88;4180342;28;20055;-76
2023/09/13 05:12:47;;;;;;;11.93;6.25;;;;;;;18.24;51.70;94913.22;4191725;28;20060;-76
2023/09/13 05:14:49;;;;;;;11.07;6.90;;;;;;;18.26;51.94;94910.34;4163949;28;20134;-77
2023/09/13 05:16:50;;;;;;;12.27;6.50;;;;;;;18.33;51.86;94909.34;4170953;28;20049;-79
2023/09/13 05:18:52;;;;;;;13.50;6.43;;;;;;;18.44;51.85;94909.78;4189872;28;20256;-77
2023/09/13 05:20:54;;;;;;;16.80;7.32;;;;;;;18.49;51.38;94915.28;4193269;28;20406;-75
2023/09/13 05:22:56;;;;;;;15.20;7.35;;;;;;;18.54;51.41;94913.66;4180749;28;20053;-77
2023/09/13 05:25:01;;;;;;;18.00;7.28;;;;;;;18.59;51.46;94915.72;4177767;28;20148;-77
2023/09/13 05:27:04;;;;;;;17.80;8.00;;;;;;;18.62;50.92;94920.59;4195424;28;20055;-76
2023/09/13 05:29:06;;;;;;;15.52;6.72;;;;;;;18.68;50.46;94924.28;4194248;28;20086;-78
2023/09/13 05:31:08;;;;;;;13.15;7.00;;;;;;;18.69;50.11;94915.28;4181644;28;20048;-78
2023/09/13 05:33:10;;;;;;;15.27;7.15;;;;;;;18.66;49.83;94918.38;4184648;28;20048;-78
2023/09/13 05:35:12;;;;;;;16.85;7.13;;;;;;;18.70;49.81;94923.06;4194416;28;20052;-77
2023/09/13 05:37:14;;;;;;;13.85;6.88;;;;;;;18.77;49.91;94925.69;4192297;28;20127;-81
2023/09/13 05:39:16;;;;;;;26.73;8.10;;;;;;;18.82;50.35;94923.28;4179527;28;20055;-80
2023/09/13 05:41:18;;;;;;;27.05;7.57;;;;;;;18.91;50.14;94922.06;4179160;28;20079;-79
2023/09/13 05:43:20;;;;;;;21.42;7.43;;;;;;;18.99;49.66;94918.38;4189307;28;20050;-76
2023/09/13 05:45:25;;;;;;;14.20;6.90;;;;;;;19.10;49.47;94916.94;4191055;28;20052;-78
2023/09/13 05:47:28;;;;;;;16.00;6.75;;;;;;;19.17;49.30;94918.56;4182020;28;20095;-75
2023/09/13 05:49:29;;;;;;;17.92;6.57;;;;;;;19.23;48.53;94916.94;4187372;28;20071;-77
2023/09/13 05:51:31;;;;;;;11.80;6.10;;;;;;;19.33;48.59;94921.78;4192814;28;20106;-77
2023/09/13 05:53:33;;;;;;;17.40;6.10;;;;;;;19.44;48.24;94921.16;4191343;28;20040;-78
2023/09/13 05:55:36;;;;;;;11.63;6.63;;;;;;;19.41;49.20;94916.25;4194297;28;20048;-80
2023/09/13 05:57:38;;;;;;;13.07;6.60;;;;;;;19.48;49.55;94914.41;4195706;28;20044;-78
2023/09/13 05:59:39;;;;;;;20.15;6.57;;;;;;;19.61;49.02;94917.00;4193602;28;20131;-77
2023/09/13 06:01:42;;;;;;;15.85;7.45;;;;;;;19.60;48.38;94919.91;4192826;28;20399;-77
2023/09/13 06:03:43;;;;;;;13.95;8.13;;;;;;;19.62;48.13;94916.00;4197599;28;20044;-76
2023/09/13 06:05:49;;;;;;;13.60;7.15;;;;;;;19.69;48.27;94912.50;4196534;28;20048;-77
2023/09/13 06:07:51;;;;;;;14.88;6.85;;;;;;;19.81;47.78;94916.16;4177343;28;20048;-80
2023/09/13 06:09:53;;;;;;;17.27;7.75;;;;;;;19.84;47.98;94911.22;4196383;28;20416;-78
2023/09/13 06:11:57;;;;;;;15.93;7.85;;;;;;;19.94;47.95;94912.63;4196856;28;20045;-77
2023/09/13 06:13:58;;;;;;;14.52;7.78;;;;;;;19.97;47.86;94913.00;4196254;28;20090;-78
2023/09/13 06:16:00;;;;;;;14.30;8.15;;;;;;;19.97;47.43;94915.66;4196996;28;20049;-77
2023/09/13 06:18:03;;;;;;;22.42;9.05;;;;;;;20.07;47.51;94917.06;4182016;28;20155;-76
2023/09/13 06:20:05;;;;;;;16.00;7.82;;;;;;;20.20;47.57;94919.66;4187540;28;20127;-78
2023/09/13 06:22:07;;;;;;;15.57;7.85;;;;;;;20.34;47.36;94918.53;4195998;28;20131;-76
2023/09/13 06:24:09;;;;;;;15.07;7.72;;;;;;;20.45;47.01;94922.34;4168350;28;20045;-76
2023/09/13 06:26:10;;;;;;;13.35;7.38;;;;;;;20.54;46.75;94921.09;4184484;28;20044;-80
2023/09/13 06:28:12;;;;;;;14.45;8.20;;;;;;;20.63;46.41;94924.34;4193771;28;20465;-76
2023/09/13 06:30:14;;;;;;;13.52;7.85;;;;;;;20.70;46.37;94911.78;4188129;28;20238;-75
2023/09/13 06:32:16;;;;;;;14.07;8.02;;;;;;;20.74;46.23;94912.16;4194329;28;20080;-78
2023/09/13 06:34:38;;;;;;;15.52;8.75;;;;;;;20.54;45.89;94920.25;4175834;28;20490;-78
2023/09/13 06:36:40;;;;;;;15.10;9.10;;;;;;;20.19;47.06;94920.69;4172634;28;20504;-77
2023/09/13 06:38:42;;;;;;;18.38;8.60;;;;;;;20.00;47.40;94925.91;4183600;28;20129;-77
2023/09/13 06:40:47;;;;;;;17.48;9.23;;;;;;;19.95;47.31;94924.91;4181523;28;20045;-77
2023/09/13 06:42:50;;;;;;;11.38;7.80;;;;;;;19.92;47.48;94923.47;4186891;28;20054;-78
2023/09/13 06:45:02;;;;;;;30.23;9.25;;;;;;;20.16;47.11;94921.94;4197211;28;20045;-79
2023/09/13 06:47:24;;;;;;;20.45;9.23;;;;;;;20.49;46.63;94923.56;4177837;28;20106;-75
2023/09/13 06:49:26;;;;;;;11.00;7.55;;;;;;;20.46;46.07;94924.81;4173163;28;20053;-78
2023/09/13 06:51:31;;;;;;;19.63;9.00;;;;;;;20.43;46.34;94930.56;4193222;28;20114;-78
2023/09/13 06:53:35;;;;;;;16.58;8.20;;;;;;;20.39;46.32;94932.03;4170808;28;20405;-74
2023/09/13 06:55:38;;;;;;;16.67;7.78;;;;;;;20.38;46.07;94934.91;4190776;28;20484;-77
2023/09/13 06:57:42;;;;;;;20.83;7.95;;;;;;;20.54;45.92;94931.72;4175228;28;20059;-75
2023/09/13 06:59:47;;;;;;;10.27;6.68;;;;;;;20.66;45.38;94940.66;4192881;28;20048;-77
2023/09/13 07:01:56;;;;;;;12.10;6.85;;;;;;;20.88;45.14;94934.97;4200802;28;20102;-76
2023/09/13 07:04:18;;;;;;;12.18;7.35;;;;;;;21.16;44.47;94937.19;4191147;28;20940;-75
2023/09/13 07:06:32;;;;;;;15.23;6.72;;;;;;;21.28;44.16;94930.13;4186517;28;20127;-76
2023/09/13 07:08:34;;;;;;;10.02;6.70;;;;;;;21.32;44.27;94929.69;4174616;28;20111;-77
2023/09/13 07:10:38;;;;;;;20.38;6.93;;;;;;;21.40;44.22;94930.22;4192867;28;20068;-75
2023/09/13 07:12:40;;;;;;;14.27;7.07;;;;;;;21.50;44.07;94931.59;4193599;28;20048;-78
2023/09/13 07:14:41;;;;;;;13.88;7.25;;;;;;;21.64;43.62;94923.22;4174374;28;20053;-78
2023/09/13 07:16:43;;;;;;;19.95;7.35;;;;;;;21.78;43.64;94925.72;4198223;28;20044;-77
2023/09/13 07:18:45;;;;;;;10.90;6.43;;;;;;;21.91;43.45;94924.75;4194104;28;20155;-76
2023/09/13 07:20:47;;;;;;;12.45;6.35;;;;;;;21.79;42.33;94927.34;4193261;28;20140;-77
2023/09/13 07:22:50;;;;;;;19.73;6.65;;;;;;;21.61;42.53;94931.66;4193128;28;20052;-77
2023/09/13 07:24:52;;;;;;;8.37;5.43;;;;;;;21.54;43.09;94932.78;4193595;28;20468;-79
2023/09/13 07:26:55;;;;;;;9.77;5.40;;;;;;;21.66;43.16;94926.47;4196407;28;20480;-79
2023/09/13 07:28:57;;;;;;;11.63;5.65;;;;;;;21.89;42.56;94927.63;4201512;28;20057;-79
2023/09/13 07:30:58;;;;;;;21.30;5.82;;;;;;;22.06;42.14;94928.66;4196280;28;20052;-78
2023/09/13 07:33:00;;;;;;;29.65;6.57;;;;;;;22.23;41.55;94936.06;4197519;28;20139;-77
2023/09/13 07:35:04;;;;;;;13.15;5.22;;;;;;;22.39;41.49;94931.94;4189395;28;20045;-76
2023/09/13 07:37:05;;;;;;;21.88;6.68;;;;;;;22.52;41.40;94928.28;4166504;28;20107;-78
2023/09/13 07:39:09;;;;;;;11.70;5.63;;;;;;;22.48;41.08;94928.75;4197192;28;20045;-78
2023/09/13 07:41:12;;;;;;;;;;;;;;;22.36;41.11;94925.22;4189269;28;20062;-78
2023/09/13 07:43:14;;;;;;;8.15;5.28;;;;;;;22.12;41.52;94920.81;4198963;28;19920;-76
2023/09/13 07:45:16;;;;;;;16.10;5.60;;;;;;;22.09;41.52;94925.56;4184307;28;20437;-75
2023/09/13 07:47:18;;;;;;;13.15;5.25;;;;;;;21.86;41.91;94920.09;4190245;28;20496;-75
2023/09/13 07:49:19;;;;;;;12.20;5.22;;;;;;;21.90;42.28;94915.94;4181204;28;20048;-77
2023/09/13 07:51:21;;;;;;;10.30;5.45;;;;;;;22.11;41.51;94911.16;4182448;28;20060;-77
2023/09/13 07:53:23;;;;;;;11.73;5.47;;;;;;;22.27;41.46;94915.91;4194532;28;20060;-76
2023/09/13 07:55:25;;;;;;;10.88;4.78;;;;;;;22.14;41.41;94918.72;4181364;28;20068;-75
2023/09/13 07:57:28;;;;;;;14.85;4.63;;;;;;;22.04;41.63;94917.38;4181446;28;20107;-77
2023/09/13 07:59:29;;;;;;;9.85;4.75;;;;;;;22.07;41.28;94924.16;4195359;28;20122;-80
2023/09/13 08:01:31;;;;;;;13.25;4.68;;;;;;;22.20;41.20;94915.13;4196049;28;20379;-77
2023/09/13 08:03:33;;;;;;;9.85;4.85;;;;;;;22.40;41.22;94922.91;4185459;28;20044;-77
2023/09/13 08:05:36;;;;;;;12.65;4.28;;;;;;;22.65;40.45;94918.22;4195745;28;20503;-77
2023/09/13 08:07:37;;;;;;;8.07;4.45;;;;;;;22.83;39.83;94921.84;4194817;28;20044;-78
2023/09/13 08:09:39;;;;;;;11.55;4.45;;;;;;;22.96;39.57;94918.16;4195691;28;20456;-77
2023/09/13 08:11:41;;;;;;;12.27;4.50;;;;;;;23.13;39.67;94919.13;4194902;28;20074;-79
2023/09/13 08:13:43;;;;;;;11.45;4.43;;;;;;;22.92;39.69;94922.34;4177564;28;20048;-79
2023/09/13 08:15:45;;;;;;;9.57;4.28;;;;;;;23.05;39.59;94916.78;4194476;28;20044;-77
2023/09/13 08:17:50;;;;;;;9.88;4.80;;;;;;;23.11;39.51;94915.88;4163769;28;20331;-79
2023/09/13 08:19:52;;;;;;;15.23;4.90;;;;;;;23.27;39.06;94912.50;4183343;28;20078;-80
2023/09/13 08:21:54;;;;;;;9.05;4.57;;;;;;;23.54;38.73;94912.00;4201902;28;20139;-77
2023/09/13 08:23:55;;;;;;;9.27;4.57;;;;;;;23.78;38.24;94914.69;4199428;28;20148;-77
2023/09/13 08:25:57;;;;;;;11.57;5.53;;;;;;;23.80;38.05;94912.59;4193127;28;20052;-77
2023/09/13 08:28:19;;;;;;;11.75;5.05;;;;;;;23.89;37.62;94906.59;4175166;28;20082;-79
2023/09/13 08:30:21;;;;;;;8.63;4.80;;;;;;;24.02;37.55;94910.06;4185602;28;20411;-76
2023/09/13 08:32:23;;;;;;;9.15;4.68;;;;;;;24.14;37.41;94910.06;4192590;28;20155;-77
2023/09/13 08:34:25;;;;;;;10.90;5.40;;;;;;;24.16;37.64;94911.44;4176960;28;20060;-79
2023/09/13 08:36:27;;;;;;;7.85;4.35;;;;;;;24.28;37.87;94901.47;4168125;28;20154;-79
2023/09/13 08:38:28;;;;;;;11.07;5.20;;;;;;;24.43;37.54;94903.59;4185684;28;20477;-78
2023/09/13 08:40:30;;;;;;;10.10;4.72;;;;;;;24.50;37.11;94907.00;4188000;28;20124;-78
2023/09/13 08:42:33;;;;;;;12.57;4.70;;;;;;;24.48;37.54;94898.41;4194624;28;20543;-76
2023/09/13 08:44:35;;;;;;;9.38;5.22;;;;;;;24.52;37.33;94893.34;4176193;28;20041;-74
2023/09/13 08:46:37;;;;;;;9.55;4.53;;;;;;;24.61;37.29;94894.59;4183000;28;20055;-77
2023/09/13 08:48:40;;;;;;;15.45;5.00;;;;;;;24.44;37.34;94897.22;4167793;28;20041;-77
2023/09/13 08:50:42;;;;;;;7.72;4.20;;;;;;;24.53;37.24;94898.47;4187311;28;20056;-77
2023/09/13 08:52:44;;;;;;;15.75;5.07;;;;;;;24.54;37.25;94896.59;4191784;28;20396;-79
2023/09/13 08:54:49;;;;;;;10.90;4.57;;;;;;;24.44;36.98;94894.53;4173532;28;20045;-77
2023/09/13 08:57:00;;;;;;;10.70;4.95;;;;;;;24.35;37.13;94892.47;4188944;28;20484;-78
2023/09/13 08:59:02;;;;;;;11.07;4.80;;;;;;;24.54;36.85;94877.84;4169916;28;20075;-77
2023/09/13 09:01:06;;;;;;;10.02;4.70;;;;;;;24.79;36.60;94885.50;4190496;28;20056;-79
2023/09/13 09:03:09;;;;;;;12.80;4.82;;;;;;;24.83;36.70;94880.47;4169898;28;20060;-80
2023/09/13 09:05:12;;;;;;;13.95;5.00;;;;;;;25.05;36.09;94885.91;4170572;28;20049;-79
2023/09/13 09:07:14;;;;;;;11.68;5.03;;;;;;;25.07;36.14;94879.25;4188757;28;20122;-78
2023/09/13 09:09:21;;;;;;;11.63;5.00;;;;;;;25.03;36.28;94877.31;4172388;28;20175;-78
2023/09/13 09:11:23;;;;;;;16.10;4.82;;;;;;;25.03;36.03;94885.34;4188897;28;20172;-78
2023/09/13 09:13:25;;;;;;;12.10;4.93;;;;;;;25.08;35.61;94880.88;4181161;28;20109;-77
2023/09/13 09:15:27;;;;;;;9.07;4.80;;;;;;;25.02;35.41;94876.50;4186311;28;20063;-76
2023/09/13 09:17:29;;;;;;;7.13;3.67;;;;;;;24.94;35.31;94874.22;4179889;28;20286;-78
2023/09/13 09:19:31;;;;;;;8.38;4.38;;;;;;;24.91;35.44;94880.88;4171895;28;20064;-77
2023/09/13 09:21:35;;;;;;;10.75;4.50;;;;;;;24.93;35.39;94875.28;4194431;28;20059;-77
2023/09/13 09:23:38;;;;;;;8.75;4.03;;;;;;;24.97;35.47;94879.06;4194782;28;20140;-79
2023/09/13 09:25:44;;;;;;;9.48;4.28;;;;;;;25.02;34.72;94876.50;4177684;28;20076;-77
2023/09/13 09:27:46;;;;;;;7.75;4.25;;;;;;;25.07;35.08;94878.44;4178092;28;20072;-78
2023/09/13 09:29:59;;;;;;;10.98;3.67;;;;;;;25.16;34.53;94876.97;4194245;28;20363;-77
2023/09/13 09:32:01;;;;;;;8.80;3.67;;;;;;;25.32;34.24;94875.34;4179641;28;20056;-78
2023/09/13 09:34:03;;;;;;;10.50;4.13;;;;;;;25.51;33.76;94874.00;4177223;28;20071;-77
2023/09/13 09:36:09;;;;;;;13.13;4.82;;;;;;;25.59;34.49;94872.75;4177569;28;20475;-79